Andice, Texas
Current Conditions -  °F | °C
As of 1:50 PM on Monday 26 Jan 2015 (Local Time) from KGTU Reporting Station
Clear Clear  
Wind Chill: 73°   Ceiling: Unl
Heat Index: 73°   Visibility: 10mi
Dew Point: 36°   Wind: 15mph
Humidity: 25%   Direction: 300°WNW
Pressure: 30.18"   Gusts: 21mph
Location:  30.6575°N, 97.7523°W
Report Text: KGTU 261950Z 30013G18KT 10SM CLR 23/02 A3018
Loading
Personal Weather Stations






























Interactive Weather Map New forecast layout! Learn more

10-Day Weather Forecast

Advertisements
Track Severe Weather on mobile